createdAt,value
2023-04-23T00:00:13.405Z,9.56
2023-04-23T00:03:13.017Z,9.52
2023-04-23T00:05:43.279Z,9.48
2023-04-23T00:08:11.827Z,9.45
2023-04-23T00:10:40.308Z,9.43
2023-04-23T00:13:10.071Z,9.42
2023-04-23T00:15:39.151Z,9.40
2023-04-23T00:18:08.109Z,9.39
2023-04-23T00:20:37.014Z,9.35
2023-04-23T00:23:05.423Z,9.31
2023-04-23T00:25:33.724Z,9.26
2023-04-23T00:28:01.986Z,9.22
2023-04-23T00:30:30.480Z,9.20
2023-04-23T00:32:58.876Z,9.17
2023-04-23T00:35:27.229Z,9.12
2023-04-23T00:37:55.840Z,9.06
2023-04-23T00:40:24.078Z,8.99
2023-04-23T00:42:53.934Z,8.91
2023-04-23T00:45:22.431Z,8.86
2023-04-23T00:47:51.319Z,8.82
2023-04-23T00:50:20.841Z,8.76
2023-04-23T00:52:49.090Z,8.67
2023-04-23T00:55:17.447Z,8.55
2023-04-23T00:57:45.975Z,8.44
2023-04-23T01:00:14.960Z,8.33
2023-04-23T01:02:45.062Z,8.23
2023-04-23T01:05:16.033Z,8.11
2023-04-23T01:07:45.719Z,7.99
2023-04-23T01:10:14.608Z,7.86
2023-04-23T01:12:43.427Z,7.74
2023-04-23T01:15:12.026Z,7.63
2023-04-23T01:17:40.432Z,7.51
2023-04-23T01:20:09.721Z,7.39
2023-04-23T01:22:38.512Z,7.23
2023-04-23T01:25:08.361Z,7.09
2023-04-23T01:27:36.740Z,6.95
2023-04-23T01:30:06.118Z,6.80
2023-04-23T01:32:36.086Z,6.65
2023-04-23T01:35:04.876Z,6.55
2023-04-23T01:37:34.520Z,6.43
2023-04-23T01:40:02.824Z,6.29
2023-04-23T01:42:31.154Z,6.18
2023-04-23T01:44:59.627Z,6.10
2023-04-23T01:47:28.203Z,6.04
2023-04-23T01:49:56.606Z,5.99
2023-04-23T01:52:25.133Z,5.93
2023-04-23T01:54:53.531Z,5.86
2023-04-23T01:57:24.389Z,5.78
2023-04-23T01:59:58.881Z,5.65
2023-04-23T02:02:27.328Z,5.53
2023-04-23T02:04:56.913Z,5.43
2023-04-23T02:07:25.251Z,5.34
2023-04-23T02:09:53.540Z,5.26
2023-04-23T02:12:22.941Z,5.18
2023-04-23T02:14:51.791Z,5.14
2023-04-23T02:17:21.829Z,5.08
2023-04-23T02:19:50.595Z,5.01
2023-04-23T02:22:18.888Z,4.94
2023-04-23T02:24:48.320Z,4.86
2023-04-23T02:27:16.608Z,4.78
2023-04-23T02:29:45.206Z,4.70
2023-04-23T02:32:13.557Z,4.63
2023-04-23T02:34:42.207Z,4.57
2023-04-23T02:37:10.973Z,4.52
2023-04-23T02:39:39.509Z,4.49
2023-04-23T02:42:07.973Z,4.47
2023-04-23T02:44:36.194Z,4.44
2023-04-23T02:47:04.617Z,4.41
2023-04-23T02:49:32.898Z,4.36
2023-04-23T02:52:01.458Z,4.31
2023-04-23T02:54:29.912Z,4.27
2023-04-23T02:57:01.130Z,4.22
2023-04-23T02:59:29.502Z,4.17
2023-04-23T03:01:57.897Z,4.13
2023-04-23T03:04:26.382Z,4.10
2023-04-23T03:06:54.654Z,4.07
2023-04-23T03:09:22.913Z,4.05
2023-04-23T03:11:51.626Z,4.03
2023-04-23T03:14:19.999Z,3.99
2023-04-23T03:16:48.517Z,3.95
2023-04-23T03:19:17.777Z,3.90
2023-04-23T03:21:46.155Z,3.86
2023-04-23T03:24:15.185Z,3.82
2023-04-23T03:26:43.442Z,3.78
2023-04-23T03:29:11.793Z,3.72
2023-04-23T03:31:41.527Z,3.66
2023-04-23T03:34:11.268Z,3.63
2023-04-23T03:36:39.789Z,3.60
2023-04-23T03:39:08.682Z,3.58
2023-04-23T03:41:47.232Z,3.56
2023-04-23T03:44:16.099Z,3.54
2023-04-23T03:46:46.430Z,3.53
2023-04-23T03:49:16.844Z,3.52
2023-04-23T03:51:45.429Z,3.52
2023-04-23T03:54:13.773Z,3.51
2023-04-23T03:56:45.920Z,3.50
2023-04-23T03:59:17.949Z,3.50
2023-04-23T04:01:48.735Z,3.51
2023-04-23T04:04:17.223Z,3.52
2023-04-23T04:06:45.991Z,3.53
2023-04-23T04:09:14.299Z,3.55
2023-04-23T04:11:42.650Z,3.57
2023-04-23T04:14:10.996Z,3.59
2023-04-23T04:16:39.357Z,3.61
2023-04-23T04:19:07.783Z,3.63
2023-04-23T04:21:36.227Z,3.67
2023-04-23T04:24:07.882Z,3.72
2023-04-23T04:26:36.315Z,3.77
2023-04-23T04:29:06.850Z,3.83
2023-04-23T04:31:35.104Z,3.89
2023-04-23T04:34:03.994Z,3.97
2023-04-23T04:36:33.101Z,4.07
2023-04-23T04:39:01.870Z,4.17
2023-04-23T04:41:30.198Z,4.28
2023-04-23T04:43:58.692Z,4.40
2023-04-23T04:46:29.315Z,4.53
2023-04-23T04:48:57.651Z,4.66
2023-04-23T04:51:27.163Z,4.81
2023-04-23T04:53:55.797Z,4.95
2023-04-23T04:56:25.817Z,5.12
2023-04-23T04:58:54.233Z,5.29
2023-04-23T05:01:25.520Z,5.46
2023-04-23T05:03:54.011Z,5.63
2023-04-23T05:06:22.594Z,5.81
2023-04-23T05:08:51.087Z,5.99
2023-04-23T05:11:20.995Z,6.20
2023-04-23T05:13:49.347Z,6.41
2023-04-23T05:16:18.177Z,6.64
2023-04-23T05:18:47.142Z,6.87
2023-04-23T05:21:15.833Z,7.09
2023-04-23T05:23:44.127Z,7.31
2023-04-23T05:26:12.497Z,7.54
2023-04-23T05:28:40.925Z,7.77
2023-04-23T05:31:09.164Z,8.00
2023-04-23T05:33:48.635Z,8.22
2023-04-23T05:36:18.603Z,8.47
2023-04-23T05:38:47.594Z,8.71
2023-04-23T05:41:16.088Z,8.94
2023-04-23T05:43:45.565Z,9.18
2023-04-23T05:46:13.961Z,9.41
2023-04-23T05:48:42.230Z,9.64
2023-04-23T05:51:11.440Z,9.88
2023-04-23T05:53:39.665Z,10.12
2023-04-23T05:56:07.879Z,10.36
2023-04-23T05:58:36.218Z,10.60
2023-04-23T06:01:04.967Z,10.85
2023-04-23T06:03:33.456Z,11.11
2023-04-23T06:06:03.327Z,11.36
2023-04-23T06:08:31.644Z,11.60
2023-04-23T06:11:00.182Z,11.84
2023-04-23T06:13:30.816Z,12.08
2023-04-23T06:15:59.683Z,12.33
2023-04-23T06:18:27.894Z,12.57
2023-04-23T06:20:57.058Z,12.79
2023-04-23T06:23:25.476Z,13.02
2023-04-23T06:25:53.711Z,13.24
2023-04-23T06:28:22.121Z,13.45
2023-04-23T06:31:13.445Z,13.69
2023-04-23T06:33:41.842Z,13.90
2023-04-23T06:36:11.125Z,14.09
2023-04-23T06:38:39.533Z,14.28
2023-04-23T06:41:07.760Z,14.47
2023-04-23T06:43:40.171Z,14.64
2023-04-23T06:46:31.597Z,14.83
2023-04-23T06:48:59.879Z,14.99
2023-04-23T06:51:28.281Z,15.15
2023-04-23T06:53:56.872Z,15.30
2023-04-23T06:56:26.926Z,15.45
2023-04-23T06:58:55.236Z,15.59
2023-04-23T07:01:23.648Z,15.73
2023-04-23T07:03:54.607Z,15.88
2023-04-23T07:06:23.120Z,16.04
2023-04-23T07:08:51.346Z,16.17
2023-04-23T07:11:19.777Z,16.30
2023-04-23T07:13:48.126Z,16.45
2023-04-23T07:16:16.541Z,16.61
2023-04-23T07:18:44.724Z,16.77
2023-04-23T07:21:13.288Z,16.93
2023-04-23T07:23:41.628Z,17.09
2023-04-23T07:26:09.774Z,17.23
2023-04-23T07:28:38.095Z,17.42
2023-04-23T07:31:08.005Z,17.61
2023-04-23T07:33:36.569Z,17.77
2023-04-23T07:36:04.867Z,17.95
2023-04-23T07:38:33.082Z,18.16
2023-04-23T07:41:01.340Z,18.35
2023-04-23T07:43:29.637Z,18.50
2023-04-23T07:45:58.283Z,18.59
2023-04-23T07:48:26.574Z,18.72
2023-04-23T07:50:55.188Z,18.87
2023-04-23T07:53:23.642Z,19.06
2023-04-23T07:55:52.549Z,19.22
2023-04-23T07:58:20.999Z,19.42
2023-04-23T08:00:49.277Z,19.56
2023-04-23T08:03:18.002Z,19.64
2023-04-23T08:08:14.854Z,19.97
2023-04-23T08:10:43.278Z,20.15
2023-04-23T08:13:12.016Z,20.33
2023-04-23T08:15:41.076Z,20.46
2023-04-23T08:18:09.442Z,20.58
2023-04-23T08:20:37.884Z,20.72
2023-04-23T08:23:07.194Z,20.88
2023-04-23T08:25:35.647Z,21.02
2023-04-23T08:28:04.131Z,21.09
2023-04-23T08:30:32.701Z,21.23
2023-04-23T08:33:01.176Z,21.34
2023-04-23T08:35:30.026Z,21.47
2023-04-23T08:38:01.708Z,21.56
2023-04-23T08:40:32.357Z,21.58
2023-04-23T08:43:10.766Z,21.59
2023-04-23T08:45:41.668Z,21.56
2023-04-23T08:48:10.482Z,21.67
2023-04-23T08:50:41.967Z,21.71
2023-04-23T08:53:10.839Z,21.64
2023-04-23T08:55:40.064Z,21.71
2023-04-23T08:58:08.600Z,21.92
2023-04-23T09:00:38.359Z,22.13
2023-04-23T09:03:07.525Z,22.24
2023-04-23T09:05:36.601Z,22.40
2023-04-23T09:08:05.039Z,22.47
2023-04-23T09:10:36.906Z,22.54
2023-04-23T09:13:05.390Z,22.66
2023-04-23T09:15:36.955Z,22.85
2023-04-23T09:18:07.017Z,22.90
2023-04-23T09:20:36.167Z,22.66
2023-04-23T09:23:09.027Z,22.72
2023-04-23T09:25:37.305Z,22.94
2023-04-23T09:28:08.004Z,23.07
2023-04-23T09:30:43.237Z,23.22
2023-04-23T09:33:16.447Z,23.36
2023-04-23T09:35:44.761Z,23.19
2023-04-23T09:38:13.148Z,22.81
2023-04-23T09:40:41.427Z,22.46
2023-04-23T09:43:10.944Z,22.20
2023-04-23T09:45:49.323Z,21.96
2023-04-23T09:48:17.784Z,21.73
2023-04-23T09:50:46.233Z,21.86
2023-04-23T09:53:14.634Z,22.01
2023-04-23T09:55:45.017Z,21.96
2023-04-23T09:58:15.821Z,22.13
2023-04-23T10:00:44.278Z,22.61
2023-04-23T10:03:12.870Z,22.98
2023-04-23T10:08:14.729Z,23.31
2023-04-23T10:13:19.638Z,23.85
2023-04-23T10:15:49.168Z,24.30
2023-04-23T10:18:19.104Z,24.70
2023-04-23T10:20:49.977Z,24.86
2023-04-23T10:23:22.525Z,24.87
2023-04-23T10:25:55.122Z,24.97
2023-04-23T10:28:29.303Z,25.27
2023-04-23T10:30:58.463Z,25.48
2023-04-23T10:33:31.794Z,25.44
2023-04-23T10:36:04.190Z,25.51
2023-04-23T10:38:32.634Z,25.65
2023-04-23T10:41:02.150Z,25.82
2023-04-23T10:43:31.102Z,25.99
2023-04-23T10:46:01.001Z,26.32
2023-04-23T10:48:29.427Z,26.34
2023-04-23T10:51:17.492Z,26.46
2023-04-23T10:53:48.296Z,26.79
2023-04-23T10:56:16.663Z,27.02
2023-04-23T10:58:54.007Z,27.20
2023-04-23T11:01:28.126Z,27.44
2023-04-23T11:03:56.617Z,27.39
2023-04-23T11:06:50.350Z,27.19
2023-04-23T11:09:37.318Z,26.94
2023-04-23T11:12:12.220Z,26.67
2023-04-23T11:14:43.798Z,26.86
2023-04-23T11:17:19.244Z,26.90
2023-04-23T11:20:14.134Z,26.77
2023-04-23T11:22:44.718Z,26.77
2023-04-23T11:25:27.076Z,26.33
2023-04-23T11:27:58.907Z,25.87
2023-04-23T11:30:29.689Z,25.87
2023-04-23T11:33:00.499Z,26.19
2023-04-23T11:35:30.786Z,26.49
2023-04-23T11:38:00.593Z,26.27
2023-04-23T11:40:36.011Z,25.83
2023-04-23T11:43:04.520Z,25.56
2023-04-23T11:45:33.165Z,25.67
2023-04-23T11:48:01.982Z,25.70
2023-04-23T11:50:36.328Z,25.61
2023-04-23T11:53:11.636Z,25.76
2023-04-23T11:55:49.612Z,25.90
2023-04-23T11:58:19.189Z,25.58
2023-04-23T12:00:49.251Z,25.12
2023-04-23T12:03:17.772Z,24.82
2023-04-23T12:05:47.176Z,24.63
2023-04-23T12:08:20.317Z,24.50
2023-04-23T12:10:54.236Z,24.43
2023-04-23T12:13:27.481Z,24.41
2023-04-23T12:16:00.844Z,24.50
2023-04-23T12:18:35.782Z,24.83
2023-04-23T12:21:12.818Z,25.35
2023-04-23T12:23:44.975Z,25.59
2023-04-23T12:26:20.090Z,25.89
2023-04-23T12:28:51.946Z,26.09
2023-04-23T12:31:24.907Z,26.22
2023-04-23T12:34:08.284Z,26.17
2023-04-23T12:36:38.601Z,26.26
2023-04-23T12:39:32.162Z,26.28
2023-04-23T12:42:05.377Z,25.81
2023-04-23T12:44:38.044Z,25.74
2023-04-23T12:47:11.538Z,25.90
2023-04-23T12:49:45.043Z,26.13
2023-04-23T12:52:14.161Z,26.29
2023-04-23T12:54:45.026Z,26.40
2023-04-23T12:57:17.186Z,26.26
2023-04-23T12:59:46.663Z,25.94
2023-04-23T13:02:15.127Z,25.61
2023-04-23T13:04:43.535Z,25.74
2023-04-23T13:07:12.167Z,26.19
2023-04-23T13:09:40.738Z,26.68
2023-04-23T13:12:12.627Z,27.09
2023-04-23T13:14:41.059Z,27.25
2023-04-23T13:17:09.578Z,27.30
2023-04-23T13:19:43.548Z,27.49
2023-04-23T13:22:12.947Z,27.74
2023-04-23T13:24:41.326Z,27.99
2023-04-23T13:27:11.197Z,28.21
2023-04-23T13:29:40.588Z,28.20
2023-04-23T13:32:10.254Z,28.08
2023-04-23T13:34:40.736Z,27.93
2023-04-23T13:37:17.105Z,27.67
2023-04-23T13:39:45.902Z,27.64
2023-04-23T13:42:14.454Z,27.83
2023-04-23T13:44:43.716Z,28.04
2023-04-23T13:47:34.974Z,28.23
2023-04-23T13:50:06.739Z,28.16
2023-04-23T13:52:40.758Z,27.95
2023-04-23T13:55:12.814Z,27.73
2023-04-23T14:00:43.572Z,26.89
2023-04-23T14:03:20.758Z,26.35
2023-04-23T14:06:06.566Z,26.16
2023-04-23T14:08:51.915Z,26.21
2023-04-23T14:11:43.703Z,26.22
2023-04-23T14:14:26.362Z,26.22
2023-04-23T14:17:12.617Z,26.01
2023-04-23T14:24:14.469Z,25.33
2023-04-23T14:26:54.055Z,25.15
2023-04-23T14:29:46.349Z,25.13
2023-04-23T14:32:49.942Z,25.17
2023-04-23T14:36:28.411Z,25.29
2023-04-23T14:39:27.024Z,25.20
2023-04-23T14:41:56.767Z,24.89
2023-04-23T14:44:30.373Z,24.58
2023-04-23T14:47:11.674Z,24.42
2023-04-23T14:49:51.521Z,24.34
2023-04-23T14:52:31.395Z,24.24
2023-04-23T14:58:15.043Z,24.01
2023-04-23T15:00:52.066Z,23.90
2023-04-23T15:03:32.856Z,23.73
2023-04-23T15:06:18.924Z,23.60
2023-04-23T15:09:03.355Z,23.49
2023-04-23T15:11:38.185Z,23.40
2023-04-23T15:14:23.123Z,23.24
2023-04-23T15:17:09.144Z,23.11
2023-04-23T15:22:52.400Z,23.13
2023-04-23T15:25:27.253Z,23.14
2023-04-23T15:28:04.599Z,23.16
2023-04-23T15:30:48.232Z,23.16
2023-04-23T15:33:21.933Z,23.17
2023-04-23T15:36:00.097Z,23.20
2023-04-23T15:38:38.199Z,23.24
2023-04-23T15:41:09.789Z,23.24
2023-04-23T15:43:41.630Z,23.19
2023-04-23T15:46:22.398Z,23.12
2023-04-23T15:48:51.028Z,23.05
2023-04-23T15:51:21.696Z,23.02
2023-04-23T15:54:03.890Z,22.97
2023-04-23T15:56:45.334Z,22.88
2023-04-23T15:59:34.013Z,22.78
2023-04-23T16:02:09.764Z,22.72
2023-04-23T16:04:43.739Z,22.63
2023-04-23T16:07:22.754Z,22.56
2023-04-23T16:10:02.584Z,22.50
2023-04-23T16:12:55.526Z,22.48
2023-04-23T16:15:36.273Z,22.46
2023-04-23T16:18:21.911Z,22.40
2023-04-23T16:20:57.328Z,22.31
2023-04-23T16:23:55.310Z,22.24
2023-04-23T16:26:37.585Z,22.14
2023-04-23T16:29:27.959Z,22.02
2023-04-23T16:32:08.431Z,21.91
2023-04-23T16:34:43.170Z,21.77
2023-04-23T16:37:24.970Z,21.62
2023-04-23T16:40:00.619Z,21.47
2023-04-23T16:42:51.306Z,21.32
2023-04-23T16:45:31.006Z,21.18
2023-04-23T16:48:03.991Z,21.03
2023-04-23T16:50:51.272Z,20.88
2023-04-23T16:54:01.598Z,20.74
2023-04-23T16:56:39.848Z,20.60
2023-04-23T16:59:37.091Z,20.47
2023-04-23T17:02:18.957Z,20.32
2023-04-23T17:04:59.447Z,20.16
2023-04-23T17:07:38.380Z,19.98
2023-04-23T17:10:30.904Z,19.81
2023-04-23T17:13:11.910Z,19.64
2023-04-23T17:15:47.217Z,19.51
2023-04-23T17:18:29.824Z,19.35
2023-04-23T17:21:13.483Z,19.15
2023-04-23T17:23:59.050Z,18.96
2023-04-23T17:26:41.437Z,18.74
2023-04-23T17:29:10.909Z,18.55
2023-04-23T17:31:39.601Z,18.37
2023-04-23T17:34:18.804Z,18.18
2023-04-23T17:36:53.162Z,17.97
2023-04-23T17:39:26.021Z,17.80
2023-04-23T17:44:56.715Z,17.52
2023-04-23T17:47:32.145Z,17.38
2023-04-23T17:50:15.907Z,17.23
2023-04-23T17:52:45.435Z,17.10
2023-04-23T17:55:28.085Z,17.00
2023-04-23T17:58:05.628Z,16.89
2023-04-23T18:00:39.540Z,16.79
2023-04-23T18:03:10.074Z,16.68
2023-04-23T18:05:38.514Z,16.58
2023-04-23T18:08:07.788Z,16.46
2023-04-23T18:10:36.267Z,16.35
2023-04-23T18:13:05.341Z,16.25
2023-04-23T18:15:33.769Z,16.15
2023-04-23T18:18:02.309Z,16.05
2023-04-23T18:20:33.152Z,15.96
2023-04-23T18:23:01.510Z,15.87
2023-04-23T18:25:30.404Z,15.78
2023-04-23T18:27:58.740Z,15.72
2023-04-23T18:30:27.264Z,15.66
2023-04-23T18:33:02.991Z,15.61
2023-04-23T18:35:31.558Z,15.58
2023-04-23T18:38:11.359Z,15.53
2023-04-23T18:40:39.622Z,15.48
2023-04-23T18:43:07.862Z,15.43
2023-04-23T18:45:36.299Z,15.39
2023-04-23T18:48:33.807Z,15.34
2023-04-23T18:51:19.691Z,15.28
2023-04-23T18:53:49.072Z,15.24
2023-04-23T18:56:17.480Z,15.20
2023-04-23T18:58:49.517Z,15.14
2023-04-23T19:01:18.814Z,15.10
2023-04-23T19:03:47.692Z,15.05
2023-04-23T19:06:16.457Z,15.02
2023-04-23T19:08:44.813Z,14.97
2023-04-23T19:11:13.142Z,14.93
2023-04-23T19:13:41.618Z,14.82
2023-04-23T19:16:10.342Z,14.72
2023-04-23T19:18:38.677Z,14.61
2023-04-23T19:21:07.136Z,14.41
2023-04-23T19:23:35.953Z,14.17
2023-04-23T19:26:04.420Z,13.98
2023-04-23T19:28:32.770Z,13.83
2023-04-23T19:31:02.985Z,13.60
2023-04-23T19:33:31.360Z,13.40
2023-04-23T19:35:59.667Z,13.20
2023-04-23T19:38:28.085Z,13.01
2023-04-23T19:40:56.988Z,12.83
2023-04-23T19:43:25.502Z,12.66
2023-04-23T19:45:53.861Z,12.48
2023-04-23T19:48:22.194Z,12.31
2023-04-23T19:50:51.297Z,12.15
2023-04-23T19:53:19.731Z,12.04
2023-04-23T19:55:47.995Z,12.02
2023-04-23T19:58:18.207Z,11.98
2023-04-23T20:00:46.718Z,11.86
2023-04-23T20:03:15.528Z,11.69
2023-04-23T20:05:46.110Z,11.57
2023-04-23T20:08:25.451Z,11.47
2023-04-23T20:10:53.917Z,11.44
2023-04-23T20:13:23.600Z,11.38
2023-04-23T20:15:53.749Z,11.31
2023-04-23T20:18:22.093Z,11.33
2023-04-23T20:20:50.321Z,11.32
2023-04-23T20:23:18.555Z,11.34
2023-04-23T20:25:48.133Z,11.38
2023-04-23T20:28:16.720Z,11.41
2023-04-23T20:30:44.894Z,11.48
2023-04-23T20:33:13.280Z,11.55
2023-04-23T20:35:43.346Z,11.62
2023-04-23T20:38:12.994Z,11.66
2023-04-23T20:40:41.273Z,11.72
2023-04-23T20:43:09.985Z,11.76
2023-04-23T20:45:38.275Z,11.74
2023-04-23T20:48:08.400Z,11.68
2023-04-23T20:50:36.760Z,11.56
2023-04-23T20:53:05.620Z,11.47
2023-04-23T20:55:33.913Z,11.40
2023-04-23T20:58:02.164Z,11.28
2023-04-23T21:00:31.127Z,11.15
2023-04-23T21:02:59.558Z,11.05
2023-04-23T21:05:27.987Z,10.96
2023-04-23T21:07:56.209Z,10.87
2023-04-23T21:10:24.876Z,10.75
2023-04-23T21:12:53.361Z,10.65
2023-04-23T21:15:21.771Z,10.60
2023-04-23T21:17:50.322Z,10.50
2023-04-23T21:20:18.692Z,10.39
2023-04-23T21:22:46.825Z,10.33
2023-04-23T21:25:15.170Z,10.30
2023-04-23T21:27:48.650Z,10.24
2023-04-23T21:30:38.997Z,10.21
2023-04-23T21:33:07.455Z,10.21
2023-04-23T21:35:36.345Z,10.22
2023-04-23T21:38:04.642Z,10.20
2023-04-23T21:40:34.427Z,10.17
2023-04-23T21:43:03.555Z,10.13
2023-04-23T21:45:32.616Z,10.07
2023-04-23T21:48:01.831Z,9.96
2023-04-23T21:50:31.534Z,9.85
2023-04-23T21:53:00.601Z,9.83
2023-04-23T21:55:31.563Z,9.91
2023-04-23T21:58:13.853Z,9.99
2023-04-23T22:00:46.326Z,10.06
2023-04-23T22:03:16.178Z,10.15
2023-04-23T22:05:55.462Z,10.25
2023-04-23T22:08:25.102Z,10.35
2023-04-23T22:10:53.311Z,10.43
2023-04-23T22:13:21.755Z,10.50
2023-04-23T22:15:50.188Z,10.57
2023-04-23T22:18:18.442Z,10.62
2023-04-23T22:20:49.591Z,10.64
2023-04-23T22:23:18.076Z,10.67
2023-04-23T22:25:46.347Z,10.67
2023-04-23T22:28:14.700Z,10.65
2023-04-23T22:30:43.932Z,10.62
2023-04-23T22:33:12.240Z,10.58
2023-04-23T22:35:40.738Z,10.55
2023-04-23T22:38:09.211Z,10.48
2023-04-23T22:40:37.555Z,10.42
2023-04-23T22:43:06.581Z,10.31
2023-04-23T22:45:35.030Z,10.17
2023-04-23T22:48:03.415Z,9.99
2023-04-23T22:50:31.776Z,9.80
2023-04-23T22:53:00.141Z,9.56
2023-04-23T22:55:28.367Z,9.36
2023-04-23T22:57:56.650Z,9.23
2023-04-23T23:00:24.942Z,9.13
2023-04-23T23:02:53.362Z,9.06
2023-04-23T23:05:21.807Z,9.01
2023-04-23T23:07:50.310Z,8.96
2023-04-23T23:10:21.480Z,8.90
2023-04-23T23:12:51.122Z,8.83
2023-04-23T23:15:19.527Z,8.72
2023-04-23T23:17:47.867Z,8.62
2023-04-23T23:20:16.445Z,8.53
2023-04-23T23:22:44.759Z,8.41
2023-04-23T23:25:13.200Z,8.29
2023-04-23T23:27:41.705Z,8.20
2023-04-23T23:30:10.616Z,8.14
2023-04-23T23:32:39.059Z,8.09
2023-04-23T23:35:08.300Z,8.03
2023-04-23T23:37:36.771Z,7.97
2023-04-23T23:40:05.799Z,7.92
2023-04-23T23:42:34.147Z,7.88
2023-04-23T23:45:02.354Z,7.84
2023-04-23T23:47:31.037Z,7.79
2023-04-23T23:49:59.430Z,7.72
2023-04-23T23:52:27.693Z,7.64
2023-04-23T23:54:55.877Z,7.55
2023-04-23T23:57:24.257Z,7.49
2023-04-23T23:59:52.455Z,7.44
